Terminal Aerodrome Forecast
Issued by NWS

Home | Current Version | Previous Version | Text Only | Print | Product List | Glossary Off
Versions: 1 2 3 4 5 6 7 8 9 10 11 12 13

589
FTUS42 KMHX 091143
TAFISO
TAF
KISO 091143Z 0912/1012 00000KT 3SM BR SCT100
     FM091300 27011G19KT P6SM BKN050
     FM100000 27005KT P6SM SCT050
      AMD LTD TO CLD VIS AND WIND=

USA.gov is the U.S. government's official web portal to all federal, state and local government web resources and services.